sensor_id;sensor_type;location;lat;lon;timestamp;pressure;altitude;pressure_sealevel;temperature;humidity
8334;BME280;4204;43.004;23.052;2023-01-28T00:01:33;93104.16;;;0.78;100.00
8334;BME280;4204;43.004;23.052;2023-01-28T00:04:02;93094.94;;;0.81;100.00
8334;BME280;4204;43.004;23.052;2023-01-28T00:06:30;93104.22;;;0.63;100.00
8334;BME280;4204;43.004;23.052;2023-01-28T00:08:58;93093.97;;;0.67;100.00
8334;BME280;4204;43.004;23.052;2023-01-28T00:11:25;93093.75;;;0.63;100.00
8334;BME280;4204;43.004;23.052;2023-01-28T00:13:53;93104.72;;;0.65;100.00
8334;BME280;4204;43.004;23.052;2023-01-28T00:16:21;93103.16;;;0.64;100.00
8334;BME280;4204;43.004;23.052;2023-01-28T00:18:49;93103.13;;;0.69;100.00
8334;BME280;4204;43.004;23.052;2023-01-28T00:21:18;93096.31;;;0.68;100.00
8334;BME280;4204;43.004;23.052;2023-01-28T00:23:49;93105.47;;;0.71;100.00
8334;BME280;4204;43.004;23.052;2023-01-28T00:26:18;93104.44;;;0.67;100.00
8334;BME280;4204;43.004;23.052;2023-01-28T00:28:46;93104.50;;;0.57;100.00
8334;BME280;4204;43.004;23.052;2023-01-28T00:31:16;93108.94;;;0.56;100.00
8334;BME280;4204;43.004;23.052;2023-01-28T00:33:45;93109.97;;;0.60;100.00
8334;BME280;4204;43.004;23.052;2023-01-28T00:36:14;93100.28;;;0.66;100.00
8334;BME280;4204;43.004;23.052;2023-01-28T00:38:48;93113.59;;;0.69;100.00
8334;BME280;4204;43.004;23.052;2023-01-28T00:41:18;93120.94;;;0.67;100.00
8334;BME280;4204;43.004;23.052;2023-01-28T00:43:47;93123.28;;;0.69;100.00
8334;BME280;4204;43.004;23.052;2023-01-28T00:46:15;93121.75;;;0.63;100.00
8334;BME280;4204;43.004;23.052;2023-01-28T00:48:44;93120.19;;;0.57;100.00
8334;BME280;4204;43.004;23.052;2023-01-28T00:51:13;93122.00;;;0.61;100.00
8334;BME280;4204;43.004;23.052;2023-01-28T00:53:43;93125.44;;;0.57;100.00
8334;BME280;4204;43.004;23.052;2023-01-28T00:56:14;93130.63;;;0.67;100.00
8334;BME280;4204;43.004;23.052;2023-01-28T00:58:42;93115.75;;;0.57;100.00
8334;BME280;4204;43.004;23.052;2023-01-28T01:01:13;93131.63;;;0.76;100.00
8334;BME280;4204;43.004;23.052;2023-01-28T01:03:42;93131.41;;;0.67;100.00
8334;BME280;4204;43.004;23.052;2023-01-28T01:06:11;93125.16;;;0.63;100.00
8334;BME280;4204;43.004;23.052;2023-01-28T01:08:39;93124.06;;;0.69;100.00
8334;BME280;4204;43.004;23.052;2023-01-28T01:11:10;93138.69;;;0.70;100.00
8334;BME280;4204;43.004;23.052;2023-01-28T01:13:38;93132.72;;;0.65;100.00
8334;BME280;4204;43.004;23.052;2023-01-28T01:16:08;93135.03;;;0.76;100.00
8334;BME280;4204;43.004;23.052;2023-01-28T01:18:37;93140.03;;;0.68;100.00
8334;BME280;4204;43.004;23.052;2023-01-28T01:21:07;93137.72;;;0.61;100.00
8334;BME280;4204;43.004;23.052;2023-01-28T01:23:35;93139.03;;;0.59;100.00
8334;BME280;4204;43.004;23.052;2023-01-28T01:26:03;93133.28;;;0.52;100.00
8334;BME280;4204;43.004;23.052;2023-01-28T01:28:33;93140.88;;;0.53;100.00
8334;BME280;4204;43.004;23.052;2023-01-28T01:31:01;93145.28;;;0.63;100.00
8334;BME280;4204;43.004;23.052;2023-01-28T01:33:29;93139.88;;;1.03;100.00
8334;BME280;4204;43.004;23.052;2023-01-28T01:35:57;93137.06;;;0.90;100.00
8334;BME280;4204;43.004;23.052;2023-01-28T01:38:27;93143.06;;;0.90;100.00
8334;BME280;4204;43.004;23.052;2023-01-28T01:40:58;93144.91;;;0.90;100.00
8334;BME280;4204;43.004;23.052;2023-01-28T01:43:46;93140.97;;;0.87;100.00
8334;BME280;4204;43.004;23.052;2023-01-28T01:46:16;93144.16;;;0.84;100.00
8334;BME280;4204;43.004;23.052;2023-01-28T01:48:46;93138.38;;;0.87;100.00
8334;BME280;4204;43.004;23.052;2023-01-28T01:51:18;93149.34;;;0.89;100.00
8334;BME280;4204;43.004;23.052;2023-01-28T01:53:51;93152.06;;;0.74;100.00
8334;BME280;4204;43.004;23.052;2023-01-28T01:56:23;93157.34;;;0.64;100.00
8334;BME280;4204;43.004;23.052;2023-01-28T01:58:57;93155.94;;;0.81;100.00
8334;BME280;4204;43.004;23.052;2023-01-28T02:01:28;93156.50;;;0.78;100.00
8334;BME280;4204;43.004;23.052;2023-01-28T02:04:02;93161.44;;;0.75;100.00
8334;BME280;4204;43.004;23.052;2023-01-28T02:06:31;93158.88;;;0.65;100.00
8334;BME280;4204;43.004;23.052;2023-01-28T02:08:59;93161.78;;;0.58;100.00
8334;BME280;4204;43.004;23.052;2023-01-28T02:11:31;93160.19;;;0.67;100.00
8334;BME280;4204;43.004;23.052;2023-01-28T02:14:04;93167.75;;;0.74;100.00
8334;BME280;4204;43.004;23.052;2023-01-28T02:16:32;93170.03;;;0.91;100.00
8334;BME280;4204;43.004;23.052;2023-01-28T02:19:00;93159.28;;;0.97;100.00
8334;BME280;4204;43.004;23.052;2023-01-28T02:24:47;93176.03;;;0.96;100.00
8334;BME280;4204;43.004;23.052;2023-01-28T02:27:26;93181.50;;;1.05;100.00
8334;BME280;4204;43.004;23.052;2023-01-28T02:30:03;93170.50;;;1.03;100.00
8334;BME280;4204;43.004;23.052;2023-01-28T02:32:36;93172.38;;;0.97;100.00
8334;BME280;4204;43.004;23.052;2023-01-28T02:35:11;93174.19;;;0.97;100.00
8334;BME280;4204;43.004;23.052;2023-01-28T02:37:45;93175.50;;;0.99;100.00
8334;BME280;4204;43.004;23.052;2023-01-28T02:40:18;93172.31;;;1.02;100.00
8334;BME280;4204;43.004;23.052;2023-01-28T02:42:47;93170.28;;;0.99;100.00
8334;BME280;4204;43.004;23.052;2023-01-28T02:45:18;93184.09;;;1.05;100.00
8334;BME280;4204;43.004;23.052;2023-01-28T02:47:47;93179.19;;;0.93;100.00
8334;BME280;4204;43.004;23.052;2023-01-28T02:50:33;93183.34;;;0.99;100.00
8334;BME280;4204;43.004;23.052;2023-01-28T02:53:12;93178.06;;;1.04;100.00
8334;BME280;4204;43.004;23.052;2023-01-28T02:56:09;93181.25;;;0.96;100.00
8334;BME280;4204;43.004;23.052;2023-01-28T02:58:44;93181.84;;;0.83;100.00
8334;BME280;4204;43.004;23.052;2023-01-28T03:01:23;93173.00;;;0.74;100.00
8334;BME280;4204;43.004;23.052;2023-01-28T03:03:57;93165.19;;;1.18;100.00
8334;BME280;4204;43.004;23.052;2023-01-28T03:06:27;93171.34;;;0.93;100.00
8334;BME280;4204;43.004;23.052;2023-01-28T03:08:58;93179.25;;;0.78;100.00
8334;BME280;4204;43.004;23.052;2023-01-28T03:11:48;93178.22;;;0.74;100.00
8334;BME280;4204;43.004;23.052;2023-01-28T03:14:35;93186.56;;;0.81;100.00
8334;BME280;4204;43.004;23.052;2023-01-28T03:17:26;93181.59;;;0.79;100.00
8334;BME280;4204;43.004;23.052;2023-01-28T03:20:14;93186.03;;;0.79;100.00
8334;BME280;4204;43.004;23.052;2023-01-28T03:23:06;93188.13;;;0.77;100.00
8334;BME280;4204;43.004;23.052;2023-01-28T03:25:54;93180.66;;;0.55;100.00
8334;BME280;4204;43.004;23.052;2023-01-28T03:28:44;93185.09;;;0.50;100.00
8334;BME280;4204;43.004;23.052;2023-01-28T03:31:31;93189.84;;;0.43;100.00
8334;BME280;4204;43.004;23.052;2023-01-28T03:34:20;93179.66;;;0.41;100.00
8334;BME280;4204;43.004;23.052;2023-01-28T03:37:07;93180.16;;;0.38;100.00
8334;BME280;4204;43.004;23.052;2023-01-28T03:39:44;93178.31;;;0.44;100.00
8334;BME280;4204;43.004;23.052;2023-01-28T03:42:13;93188.72;;;0.64;100.00
8334;BME280;4204;43.004;23.052;2023-01-28T03:44:54;93191.34;;;0.59;100.00
8334;BME280;4204;43.004;23.052;2023-01-28T03:47:25;93190.00;;;0.71;100.00
8334;BME280;4204;43.004;23.052;2023-01-28T03:49:56;93198.88;;;0.70;100.00
8334;BME280;4204;43.004;23.052;2023-01-28T03:52:26;93189.75;;;0.68;100.00
8334;BME280;4204;43.004;23.052;2023-01-28T03:55:06;93202.06;;;0.67;100.00
8334;BME280;4204;43.004;23.052;2023-01-28T03:57:39;93192.13;;;0.59;100.00
8334;BME280;4204;43.004;23.052;2023-01-28T04:00:08;93200.75;;;0.65;100.00
8334;BME280;4204;43.004;23.052;2023-01-28T04:02:42;93199.72;;;0.66;100.00
8334;BME280;4204;43.004;23.052;2023-01-28T04:05:16;93211.72;;;0.72;100.00
8334;BME280;4204;43.004;23.052;2023-01-28T04:07:49;93204.91;;;0.71;100.00
8334;BME280;4204;43.004;23.052;2023-01-28T04:10:29;93205.97;;;0.70;100.00
8334;BME280;4204;43.004;23.052;2023-01-28T04:13:05;93207.56;;;0.61;100.00
8334;BME280;4204;43.004;23.052;2023-01-28T04:15:32;93210.44;;;0.64;100.00
8334;BME280;4204;43.004;23.052;2023-01-28T04:18:01;93215.38;;;0.71;100.00
8334;BME280;4204;43.004;23.052;2023-01-28T04:20:31;93220.63;;;0.71;100.00
8334;BME280;4204;43.004;23.052;2023-01-28T04:23:00;93219.84;;;0.60;100.00
8334;BME280;4204;43.004;23.052;2023-01-28T04:25:29;93216.78;;;0.43;100.00
8334;BME280;4204;43.004;23.052;2023-01-28T04:27:57;93224.31;;;0.50;100.00
8334;BME280;4204;43.004;23.052;2023-01-28T04:30:28;93225.41;;;0.39;100.00
8334;BME280;4204;43.004;23.052;2023-01-28T04:33:15;93222.28;;;0.32;100.00
8334;BME280;4204;43.004;23.052;2023-01-28T04:36:04;93226.19;;;0.34;100.00
8334;BME280;4204;43.004;23.052;2023-01-28T04:38:42;93228.28;;;0.42;100.00
8334;BME280;4204;43.004;23.052;2023-01-28T04:41:27;93228.50;;;0.66;100.00
8334;BME280;4204;43.004;23.052;2023-01-28T04:44:00;93239.44;;;0.78;100.00
8334;BME280;4204;43.004;23.052;2023-01-28T04:46:54;93248.34;;;0.82;100.00
8334;BME280;4204;43.004;23.052;2023-01-28T04:49:51;93243.88;;;0.77;100.00
8334;BME280;4204;43.004;23.052;2023-01-28T04:52:40;93251.47;;;0.79;100.00
8334;BME280;4204;43.004;23.052;2023-01-28T04:55:26;93247.34;;;0.68;100.00
8334;BME280;4204;43.004;23.052;2023-01-28T04:57:54;93255.44;;;0.61;100.00
8334;BME280;4204;43.004;23.052;2023-01-28T05:00:22;93259.91;;;0.66;100.00
8334;BME280;4204;43.004;23.052;2023-01-28T05:02:51;93251.78;;;0.67;100.00
8334;BME280;4204;43.004;23.052;2023-01-28T05:05:19;93263.28;;;0.66;100.00
8334;BME280;4204;43.004;23.052;2023-01-28T05:07:57;93266.94;;;0.70;100.00
8334;BME280;4204;43.004;23.052;2023-01-28T05:10:26;93258.34;;;0.60;100.00
8334;BME280;4204;43.004;23.052;2023-01-28T05:12:54;93265.69;;;0.58;100.00
8334;BME280;4204;43.004;23.052;2023-01-28T05:15:21;93264.59;;;0.59;100.00
8334;BME280;4204;43.004;23.052;2023-01-28T05:17:53;93270.09;;;0.52;100.00
8334;BME280;4204;43.004;23.052;2023-01-28T05:20:22;93276.13;;;0.48;100.00
8334;BME280;4204;43.004;23.052;2023-01-28T05:22:51;93272.22;;;0.45;100.00
8334;BME280;4204;43.004;23.052;2023-01-28T05:25:25;93289.72;;;0.50;100.00
8334;BME280;4204;43.004;23.052;2023-01-28T05:27:53;93281.13;;;0.39;100.00
8334;BME280;4204;43.004;23.052;2023-01-28T05:30:21;93286.34;;;0.44;100.00
8334;BME280;4204;43.004;23.052;2023-01-28T05:32:54;93289.72;;;0.50;100.00
8334;BME280;4204;43.004;23.052;2023-01-28T05:35:22;93282.41;;;0.52;100.00
8334;BME280;4204;43.004;23.052;2023-01-28T05:37:50;93290.78;;;0.49;100.00
8334;BME280;4204;43.004;23.052;2023-01-28T05:40:19;93293.41;;;0.44;100.00
8334;BME280;4204;43.004;23.052;2023-01-28T05:42:48;93297.88;;;0.43;100.00
8334;BME280;4204;43.004;23.052;2023-01-28T05:45:26;93301.75;;;0.46;100.00
8334;BME280;4204;43.004;23.052;2023-01-28T05:48:05;93298.13;;;0.47;100.00
8334;BME280;4204;43.004;23.052;2023-01-28T05:50:51;93300.72;;;0.47;100.00
8334;BME280;4204;43.004;23.052;2023-01-28T05:53:21;93320.59;;;0.48;100.00
8334;BME280;4204;43.004;23.052;2023-01-28T05:55:51;93316.94;;;0.54;100.00
8334;BME280;4204;43.004;23.052;2023-01-28T05:58:21;93315.63;;;0.56;100.00
8334;BME280;4204;43.004;23.052;2023-01-28T06:00:49;93310.41;;;0.56;100.00
8334;BME280;4204;43.004;23.052;2023-01-28T06:03:21;93315.06;;;0.90;100.00
8334;BME280;4204;43.004;23.052;2023-01-28T06:05:49;93313.75;;;0.77;100.00
8334;BME280;4204;43.004;23.052;2023-01-28T06:08:17;93321.91;;;0.65;100.00
8334;BME280;4204;43.004;23.052;2023-01-28T06:10:45;93324.78;;;0.74;100.00
8334;BME280;4204;43.004;23.052;2023-01-28T06:13:12;93335.00;;;0.65;100.00
8334;BME280;4204;43.004;23.052;2023-01-28T06:16:11;93323.19;;;0.73;100.00
8334;BME280;4204;43.004;23.052;2023-01-28T06:18:57;93334.72;;;0.72;100.00
8334;BME280;4204;43.004;23.052;2023-01-28T06:21:24;93325.03;;;0.77;100.00
8334;BME280;4204;43.004;23.052;2023-01-28T06:23:52;93334.69;;;0.87;100.00
8334;BME280;4204;43.004;23.052;2023-01-28T06:26:20;93344.91;;;0.83;100.00
8334;BME280;4204;43.004;23.052;2023-01-28T06:28:48;93334.72;;;0.77;100.00
8334;BME280;4204;43.004;23.052;2023-01-28T06:31:17;93347.53;;;0.89;100.00
8334;BME280;4204;43.004;23.052;2023-01-28T06:33:45;93340.44;;;0.89;100.00
8334;BME280;4204;43.004;23.052;2023-01-28T06:36:12;93343.34;;;0.93;100.00
8334;BME280;4204;43.004;23.052;2023-01-28T06:38:40;93346.47;;;0.95;100.00
8334;BME280;4204;43.004;23.052;2023-01-28T06:41:08;93357.72;;;0.95;100.00
8334;BME280;4204;43.004;23.052;2023-01-28T06:43:36;93356.41;;;0.98;100.00
8334;BME280;4204;43.004;23.052;2023-01-28T06:46:04;93363.47;;;0.92;100.00
8334;BME280;4204;43.004;23.052;2023-01-28T06:48:33;93368.72;;;0.92;100.00
8334;BME280;4204;43.004;23.052;2023-01-28T06:51:01;93374.22;;;0.91;100.00
8334;BME280;4204;43.004;23.052;2023-01-28T06:53:29;93384.44;;;0.72;100.00
8334;BME280;4204;43.004;23.052;2023-01-28T06:55:56;93379.97;;;0.72;100.00
8334;BME280;4204;43.004;23.052;2023-01-28T06:58:24;93372.16;;;0.67;100.00
8334;BME280;4204;43.004;23.052;2023-01-28T07:00:52;93384.97;;;0.64;100.00
8334;BME280;4204;43.004;23.052;2023-01-28T07:03:20;93382.34;;;0.59;100.00
8334;BME280;4204;43.004;23.052;2023-01-28T07:05:50;93383.13;;;0.59;100.00
8334;BME280;4204;43.004;23.052;2023-01-28T07:08:17;93384.94;;;0.44;100.00
8334;BME280;4204;43.004;23.052;2023-01-28T07:10:45;93383.13;;;0.39;100.00
8334;BME280;4204;43.004;23.052;2023-01-28T07:13:14;93393.84;;;0.38;100.00
8334;BME280;4204;43.004;23.052;2023-01-28T07:15:42;93390.47;;;0.37;100.00
8334;BME280;4204;43.004;23.052;2023-01-28T07:18:10;93390.19;;;0.29;100.00
8334;BME280;4204;43.004;23.052;2023-01-28T07:20:37;93394.88;;;0.32;100.00
8334;BME280;4204;43.004;23.052;2023-01-28T07:23:06;93393.84;;;0.28;100.00
8334;BME280;4204;43.004;23.052;2023-01-28T07:25:34;93399.59;;;0.25;100.00
8334;BME280;4204;43.004;23.052;2023-01-28T07:28:02;93400.88;;;0.27;100.00
8334;BME280;4204;43.004;23.052;2023-01-28T07:30:29;93401.16;;;0.36;100.00
8334;BME280;4204;43.004;23.052;2023-01-28T07:32:58;93408.50;;;0.44;100.00
8334;BME280;4204;43.004;23.052;2023-01-28T07:35:26;93413.19;;;0.32;100.00
8334;BME280;4204;43.004;23.052;2023-01-28T07:37:54;93413.22;;;0.37;100.00
8334;BME280;4204;43.004;23.052;2023-01-28T07:40:24;93412.41;;;0.36;100.00
8334;BME280;4204;43.004;23.052;2023-01-28T07:42:53;93417.66;;;0.41;100.00
8334;BME280;4204;43.004;23.052;2023-01-28T07:45:22;93428.38;;;0.40;100.00
8334;BME280;4204;43.004;23.052;2023-01-28T07:47:54;93420.03;;;0.43;100.00
8334;BME280;4204;43.004;23.052;2023-01-28T07:50:22;93427.84;;;0.33;100.00
8334;BME280;4204;43.004;23.052;2023-01-28T07:52:51;93424.19;;;0.34;100.00
8334;BME280;4204;43.004;23.052;2023-01-28T07:55:18;93437.28;;;0.39;100.00
8334;BME280;4204;43.004;23.052;2023-01-28T07:57:52;93432.03;;;0.54;100.00
8334;BME280;4204;43.004;23.052;2023-01-28T08:00:21;93436.75;;;0.52;100.00
8334;BME280;4204;43.004;23.052;2023-01-28T08:02:49;93439.91;;;0.59;100.00
8334;BME280;4204;43.004;23.052;2023-01-28T08:05:21;93442.28;;;0.55;100.00
8334;BME280;4204;43.004;23.052;2023-01-28T08:07:49;93444.38;;;0.53;100.00
8334;BME280;4204;43.004;23.052;2023-01-28T08:10:18;93447.25;;;0.57;100.00
8334;BME280;4204;43.004;23.052;2023-01-28T08:12:55;93450.91;;;0.66;100.00
8334;BME280;4204;43.004;23.052;2023-01-28T08:15:24;93457.19;;;0.65;100.00
8334;BME280;4204;43.004;23.052;2023-01-28T08:17:53;93452.50;;;0.72;100.00
8334;BME280;4204;43.004;23.052;2023-01-28T08:20:20;93461.91;;;0.78;100.00
8334;BME280;4204;43.004;23.052;2023-01-28T08:22:48;93447.78;;;0.69;100.00
8334;BME280;4204;43.004;23.052;2023-01-28T08:25:16;93461.66;;;0.69;100.00
8334;BME280;4204;43.004;23.052;2023-01-28T08:27:44;93467.69;;;0.70;100.00
8334;BME280;4204;43.004;23.052;2023-01-28T08:30:14;93473.97;;;0.84;100.00
8334;BME280;4204;43.004;23.052;2023-01-28T08:32:42;93472.13;;;0.79;100.00
8334;BME280;4204;43.004;23.052;2023-01-28T08:35:09;93473.69;;;0.86;100.00
8334;BME280;4204;43.004;23.052;2023-01-28T08:37:37;93472.91;;;0.80;100.00
8334;BME280;4204;43.004;23.052;2023-01-28T08:40:06;93479.19;;;0.94;100.00
8334;BME280;4204;43.004;23.052;2023-01-28T08:42:34;93478.16;;;0.90;100.00
8334;BME280;4204;43.004;23.052;2023-01-28T08:45:02;93482.59;;;0.90;100.00
8334;BME280;4204;43.004;23.052;2023-01-28T08:47:31;93491.50;;;0.94;100.00
8334;BME280;4204;43.004;23.052;2023-01-28T08:49:59;93479.97;;;0.90;100.00
8334;BME280;4204;43.004;23.052;2023-01-28T08:52:27;93485.22;;;0.95;100.00
8334;BME280;4204;43.004;23.052;2023-01-28T08:54:54;93487.56;;;0.91;100.00
8334;BME280;4204;43.004;23.052;2023-01-28T08:57:22;93487.03;;;0.89;100.00
8334;BME280;4204;43.004;23.052;2023-01-28T08:59:50;93489.69;;;0.99;100.00
8334;BME280;4204;43.004;23.052;2023-01-28T09:02:17;93478.94;;;1.01;100.00
8334;BME280;4204;43.004;23.052;2023-01-28T09:04:47;93494.13;;;0.99;100.00
8334;BME280;4204;43.004;23.052;2023-01-28T09:07:14;93493.09;;;0.95;100.00
8334;BME280;4204;43.004;23.052;2023-01-28T09:09:42;93485.50;;;1.03;100.00
8334;BME280;4204;43.004;23.052;2023-01-28T09:12:10;93493.34;;;1.08;100.00
8334;BME280;4204;43.004;23.052;2023-01-28T09:14:37;93490.19;;;0.96;100.00
8334;BME280;4204;43.004;23.052;2023-01-28T09:17:05;93489.41;;;0.91;100.00
8334;BME280;4204;43.004;23.052;2023-01-28T09:19:33;93495.97;;;0.93;100.00
8334;BME280;4204;43.004;23.052;2023-01-28T09:22:04;93489.66;;;1.04;100.00
8334;BME280;4204;43.004;23.052;2023-01-28T09:24:32;93494.13;;;0.94;100.00
8334;BME280;4204;43.004;23.052;2023-01-28T09:26:59;93495.16;;;0.98;100.00
8334;BME280;4204;43.004;23.052;2023-01-28T09:29:27;93494.13;;;0.94;100.00
8334;BME280;4204;43.004;23.052;2023-01-28T09:31:54;93492.28;;;0.94;100.00
8334;BME280;4204;43.004;23.052;2023-01-28T09:34:22;93490.19;;;0.86;100.00
8334;BME280;4204;43.004;23.052;2023-01-28T09:36:50;93488.34;;;0.81;100.00
8334;BME280;4204;43.004;23.052;2023-01-28T09:39:19;93484.94;;;0.86;100.00
8334;BME280;4204;43.004;23.052;2023-01-28T09:41:59;93493.34;;;0.88;100.00
8334;BME280;4204;43.004;23.052;2023-01-28T09:44:41;93484.16;;;0.96;100.00
8334;BME280;4204;43.004;23.052;2023-01-28T09:47:20;93489.41;;;1.06;100.00
8334;BME280;4204;43.004;23.052;2023-01-28T09:49:52;93481.81;;;1.09;100.00
8334;BME280;4204;43.004;23.052;2023-01-28T09:52:23;93486.28;;;1.14;100.00
8334;BME280;4204;43.004;23.052;2023-01-28T09:54:57;93488.38;;;1.17;100.00
8334;BME280;4204;43.004;23.052;2023-01-28T09:57:32;93489.41;;;1.11;100.00
8334;BME280;4204;43.004;23.052;2023-01-28T10:00:02;93490.47;;;1.15;100.00
8334;BME280;4204;43.004;23.052;2023-01-28T10:02:49;93478.94;;;1.26;100.00
8334;BME280;4204;43.004;23.052;2023-01-28T10:05:30;93482.31;;;1.26;100.00
8334;BME280;4204;43.004;23.052;2023-01-28T10:08:07;93483.91;;;1.32;100.00
8334;BME280;4204;43.004;23.052;2023-01-28T10:10:46;93478.16;;;1.30;100.00
8334;BME280;4204;43.004;23.052;2023-01-28T10:13:26;93479.19;;;1.24;100.00
8334;BME280;4204;43.004;23.052;2023-01-28T10:16:11;93482.84;;;1.28;100.00
8334;BME280;4204;43.004;23.052;2023-01-28T10:18:43;93487.56;;;1.31;100.00
8334;BME280;4204;43.004;23.052;2023-01-28T10:21:19;93474.19;;;1.38;100.00
8334;BME280;4204;43.004;23.052;2023-01-28T10:23:56;93481.53;;;1.41;100.00
8334;BME280;4204;43.004;23.052;2023-01-28T10:26:30;93478.66;;;1.42;100.00
8334;BME280;4204;43.004;23.052;2023-01-28T10:29:05;93478.38;;;1.39;100.00
8334;BME280;4204;43.004;23.052;2023-01-28T10:31:35;93474.72;;;1.40;100.00
8334;BME280;4204;43.004;23.052;2023-01-28T10:34:06;93486.25;;;1.34;100.00
8334;BME280;4204;43.004;23.052;2023-01-28T10:36:33;93483.38;;;1.30;100.00
8334;BME280;4204;43.004;23.052;2023-01-28T10:39:01;93479.72;;;1.21;100.00
8334;BME280;4204;43.004;23.052;2023-01-28T10:41:31;93483.13;;;1.22;100.00
8334;BME280;4204;43.004;23.052;2023-01-28T10:43:59;93481.56;;;1.11;100.00
8334;BME280;4204;43.004;23.052;2023-01-28T10:46:29;93470.81;;;1.17;100.00
8334;BME280;4204;43.004;23.052;2023-01-28T10:49:05;93479.19;;;1.14;100.00
8334;BME280;4204;43.004;23.052;2023-01-28T10:51:39;93476.59;;;1.19;100.00
8334;BME280;4204;43.004;23.052;2023-01-28T10:54:19;93481.00;;;1.29;100.00
8334;BME280;4204;43.004;23.052;2023-01-28T10:56:51;93474.22;;;1.23;100.00
8334;BME280;4204;43.004;23.052;2023-01-28T10:59:24;93477.91;;;1.22;100.00
8334;BME280;4204;43.004;23.052;2023-01-28T11:01:53;93482.84;;;1.28;100.00
8334;BME280;4204;43.004;23.052;2023-01-28T11:04:23;93483.66;;;1.24;100.00
8334;BME280;4204;43.004;23.052;2023-01-28T11:06:57;93471.88;;;1.21;100.00
8334;BME280;4204;43.004;23.052;2023-01-28T11:09:27;93484.69;;;1.13;100.00
8334;BME280;4204;43.004;23.052;2023-01-28T11:11:58;93481.56;;;1.16;100.00
8334;BME280;4204;43.004;23.052;2023-01-28T11:14:37;93475.03;;;1.03;100.00
8334;BME280;4204;43.004;23.052;2023-01-28T11:17:12;93481.31;;;1.07;100.00
8334;BME280;4204;43.004;23.052;2023-01-28T11:19:42;93480.50;;;0.97;100.00
8334;BME280;4204;43.004;23.052;2023-01-28T11:22:22;93484.97;;;1.01;100.00
8334;BME280;4204;43.004;23.052;2023-01-28T11:24:50;93476.84;;;1.03;100.00
8334;BME280;4204;43.004;23.052;2023-01-28T11:27:26;93483.13;;;1.22;100.00
8334;BME280;4204;43.004;23.052;2023-01-28T11:29:56;93483.38;;;1.25;100.00
8334;BME280;4204;43.004;23.052;2023-01-28T11:32:27;93482.84;;;1.28;100.00
8334;BME280;4204;43.004;23.052;2023-01-28T11:34:57;93475.78;;;1.34;100.00
8334;BME280;4204;43.004;23.052;2023-01-28T11:37:28;93475.25;;;1.37;100.00
8334;BME280;4204;43.004;23.052;2023-01-28T11:40:14;93479.94;;;1.50;100.00
8334;BME280;4204;43.004;23.052;2023-01-28T11:42:47;93479.16;;;1.49;100.00
8334;BME280;4204;43.004;23.052;2023-01-28T11:45:17;93481.00;;;1.44;100.00
8334;BME280;4204;43.004;23.052;2023-01-28T11:48:02;93468.66;;;1.49;100.00
8334;BME280;4204;43.004;23.052;2023-01-28T11:50:41;93469.97;;;1.52;100.00
8334;BME280;4204;43.004;23.052;2023-01-28T11:59:03;93474.94;;;1.58;100.00
8334;BME280;4204;43.004;23.052;2023-01-28T12:01:42;93467.88;;;1.59;100.00
8334;BME280;4204;43.004;23.052;2023-01-28T12:04:22;93479.91;;;1.65;100.00
8334;BME280;4204;43.004;23.052;2023-01-28T12:07:07;93473.38;;;1.62;100.00
8334;BME280;4204;43.004;23.052;2023-01-28T12:09:45;93476.25;;;1.61;100.00
8334;BME280;4204;43.004;23.052;2023-01-28T12:12:31;93472.34;;;1.58;100.00
8334;BME280;4204;43.004;23.052;2023-01-28T12:15:24;93477.56;;;1.58;100.00
8334;BME280;4204;43.004;23.052;2023-01-28T12:18:01;93469.72;;;1.43;100.00
8334;BME280;4204;43.004;23.052;2023-01-28T12:20:47;93470.53;;;1.34;100.00
8334;BME280;4204;43.004;23.052;2023-01-28T12:23:38;93475.00;;;1.33;100.00
8334;BME280;4204;43.004;23.052;2023-01-28T12:26:15;93471.84;;;1.36;100.00
8334;BME280;4204;43.004;23.052;2023-01-28T12:28:55;93484.66;;;1.43;100.00
8334;BME280;4204;43.004;23.052;2023-01-28T12:31:45;93477.84;;;1.37;100.00
8334;BME280;4204;43.004;23.052;2023-01-28T12:37:21;93479.69;;;1.26;100.00
8334;BME280;4204;43.004;23.052;2023-01-28T12:40:03;93477.34;;;1.25;100.00
8334;BME280;4204;43.004;23.052;2023-01-28T12:42:39;93484.19;;;1.26;100.00
8334;BME280;4204;43.004;23.052;2023-01-28T12:45:14;93482.59;;;1.25;100.00
8334;BME280;4204;43.004;23.052;2023-01-28T12:47:49;93487.31;;;1.23;100.00
8334;BME280;4204;43.004;23.052;2023-01-28T12:50:24;93478.66;;;1.22;100.00
8334;BME280;4204;43.004;23.052;2023-01-28T12:52:58;93477.63;;;1.23;100.00
8334;BME280;4204;43.004;23.052;2023-01-28T12:55:37;93481.56;;;1.26;100.00
8334;BME280;4204;43.004;23.052;2023-01-28T12:58:12;93491.22;;;1.20;100.00
8334;BME280;4204;43.004;23.052;2023-01-28T13:00:47;93486.53;;;1.12;100.00
8334;BME280;4204;43.004;23.052;2023-01-28T13:03:20;93491.25;;;1.15;100.00
8334;BME280;4204;43.004;23.052;2023-01-28T13:05:53;93497.28;;;1.16;100.00
8334;BME280;4204;43.004;23.052;2023-01-28T13:08:25;93497.00;;;1.12;100.00
8334;BME280;4204;43.004;23.052;2023-01-28T13:10:54;93502.75;;;1.14;100.00
8334;BME280;4204;43.004;23.052;2023-01-28T13:13:27;93507.75;;;1.21;100.00
8334;BME280;4204;43.004;23.052;2023-01-28T13:15:56;93496.75;;;1.19;100.00
8334;BME280;4204;43.004;23.052;2023-01-28T13:18:36;93500.16;;;1.19;100.00
8334;BME280;4204;43.004;23.052;2023-01-28T13:21:13;93499.59;;;1.22;100.00
8334;BME280;4204;43.004;23.052;2023-01-28T13:23:43;93504.34;;;1.25;100.00
8334;BME280;4204;43.004;23.052;2023-01-28T13:26:28;93506.69;;;1.32;100.00
8334;BME280;4204;43.004;23.052;2023-01-28T13:29:18;93505.91;;;1.36;100.00
8334;BME280;4204;43.004;23.052;2023-01-28T13:31:48;93511.16;;;1.31;100.00
8334;BME280;4204;43.004;23.052;2023-01-28T13:34:35;93515.31;;;1.37;100.00
8334;BME280;4204;43.004;23.052;2023-01-28T13:37:20;93522.13;;;1.28;100.00
8334;BME280;4204;43.004;23.052;2023-01-28T13:39:55;93517.16;;;1.27;100.00
8334;BME280;4204;43.004;23.052;2023-01-28T13:42:27;93516.38;;;1.26;100.00
8334;BME280;4204;43.004;23.052;2023-01-28T13:45:06;93524.75;;;1.28;100.00
8334;BME280;4204;43.004;23.052;2023-01-28T13:47:35;93530.53;;;1.20;100.00
8334;BME280;4204;43.004;23.052;2023-01-28T13:50:11;93528.44;;;1.22;100.00
8334;BME280;4204;43.004;23.052;2023-01-28T13:52:43;93526.59;;;1.13;100.00